Time;durP1;ratioP1;P1;durP2;ratioP2;P2;SDS_P1;SDS_P2;PMS_P1;PMS_P2;Temp;Humidity;BMP_temperature;BMP_pressure;BME280_temperature;BME280_humidity;BME280_pressure;Samples;Min_cycle;Max_cycle;Signal;HPM_P1;HPM_P2
2022/09/08 00:00:25;;;;;;;1.77;0.73;;;18.80;99.90;;;;;;20975647;28;20090;-80
2022/09/08 00:10:27;;;;;;;8.05;1.65;;;18.70;99.90;;;;;;20963742;28;20025;-80
2022/09/08 00:20:28;;;;;;;3.45;1.02;;;18.60;99.90;;;;;;20993605;28;20153;-81
2022/09/08 00:30:31;;;;;;;1.42;0.70;;;18.60;99.90;;;;;;20993420;28;20097;-80
2022/09/08 00:40:41;;;;;;;6.53;1.23;;;18.60;99.90;;;;;;20959670;28;20044;-81
2022/09/08 00:50:44;;;;;;;7.43;1.48;;;18.70;99.90;;;;;;20987159;28;20036;-81
2022/09/08 01:00:46;;;;;;;3.42;1.00;;;18.70;99.90;;;;;;20995532;28;20145;-80
2022/09/08 01:21:59;;;;;;;1.25;0.70;;;18.60;99.90;;;;;;21004643;28;20745;-80
2022/09/08 01:32:02;;;;;;;2.88;1.40;;;18.60;99.90;;;;;;20963317;28;20601;-81
2022/09/08 01:42:05;;;;;;;6.03;1.10;;;18.40;99.90;;;;;;20987235;28;20756;-82
2022/09/08 01:52:07;;;;;;;1.92;0.80;;;17.70;99.90;;;;;;20962671;28;20036;-81
2022/09/08 02:02:08;;;;;;;2.45;0.75;;;17.40;99.90;;;;;;20967695;28;20039;-80
2022/09/08 02:12:10;;;;;;;3.70;1.08;;;17.30;99.90;;;;;;21017275;28;20128;-80
2022/09/08 02:22:11;;;;;;;1.20;0.55;;;17.20;99.90;;;;;;20991617;28;20475;-81
2022/09/08 02:32:12;;;;;;;3.08;0.80;;;17.20;99.90;;;;;;20982718;28;21460;-81
2022/09/08 02:42:14;;;;;;;5.28;2.05;;;17.10;99.90;;;;;;21013034;28;20032;-81
2022/09/08 02:52:14;;;;;;;9.32;2.78;;;17.10;99.90;;;;;;21004519;28;20556;-80
2022/09/08 03:02:16;;;;;;;4.60;1.58;;;17.00;99.90;;;;;;21002143;28;20032;-80
2022/09/08 03:12:17;;;;;;;4.28;1.67;;;17.00;99.90;;;;;;21007738;28;20028;-80
2022/09/08 03:22:18;;;;;;;8.45;1.85;;;17.10;99.90;;;;;;20981681;28;20068;-80
2022/09/08 03:32:19;;;;;;;3.58;1.13;;;17.20;99.90;;;;;;20983921;28;20410;-79
2022/09/08 03:42:20;;;;;;;4.28;1.88;;;17.20;99.90;;;;;;20992668;28;20043;-80
2022/09/08 03:52:21;;;;;;;3.47;1.52;;;17.30;99.90;;;;;;20978030;28;20041;-80
2022/09/08 04:02:23;;;;;;;3.03;1.48;;;17.20;99.90;;;;;;20998343;28;20043;-80
2022/09/08 04:12:25;;;;;;;3.53;1.48;;;17.20;99.90;;;;;;21001783;28;20033;-80
2022/09/08 04:22:26;;;;;;;4.50;1.50;;;17.10;99.90;;;;;;20990635;28;20089;-81
2022/09/08 04:32:27;;;;;;;5.20;1.23;;;17.00;99.90;;;;;;20985394;28;20105;-80
2022/09/08 04:42:29;;;;;;;3.30;1.10;;;16.80;99.90;;;;;;20981857;28;20036;-81
2022/09/08 04:52:30;;;;;;;2.17;1.00;;;16.70;99.90;;;;;;20999804;28;20479;-82
2022/09/08 05:02:31;;;;;;;3.08;1.30;;;16.60;99.90;;;;;;21006854;28;20046;-82
2022/09/08 05:12:32;;;;;;;3.30;1.63;;;16.50;99.90;;;;;;20972063;28;20032;-83
2022/09/08 05:22:33;;;;;;;3.28;1.63;;;16.40;99.90;;;;;;20985531;28;20093;-83
2022/09/08 05:32:34;;;;;;;4.35;1.98;;;16.40;99.90;;;;;;20987165;28;20036;-82
2022/09/08 05:42:35;;;;;;;3.45;1.42;;;16.40;99.90;;;;;;20995495;28;20098;-83
2022/09/08 05:52:36;;;;;;;3.67;1.55;;;16.40;99.90;;;;;;21002902;28;20111;-82
2022/09/08 06:02:37;;;;;;;3.85;1.67;;;16.40;99.90;;;;;;21003507;28;20039;-83
2022/09/08 06:12:38;;;;;;;3.05;1.27;;;16.40;99.90;;;;;;21019435;28;20032;-82
2022/09/08 06:22:39;;;;;;;4.38;1.65;;;16.40;99.90;;;;;;20997882;28;20035;-82
2022/09/08 06:33:00;;;;;;;3.20;1.52;;;16.40;99.90;;;;;;21002498;28;20032;-82
2022/09/08 06:43:11;;;;;;;4.03;1.20;;;16.40;99.90;;;;;;21012370;28;20287;-83
2022/09/08 06:53:19;;;;;;;3.08;1.35;;;16.40;99.90;;;;;;20979244;28;21167;-81
2022/09/08 07:03:42;;;;;;;5.47;1.63;;;16.50;99.90;;;;;;20981771;28;20045;-82
2022/09/08 07:14:00;;;;;;;6.40;2.35;;;16.40;99.90;;;;;;21006703;28;20039;-82
2022/09/08 07:24:02;;;;;;;3.67;1.77;;;16.50;99.90;;;;;;20988863;28;20707;-82
2022/09/08 07:34:09;;;;;;;7.70;3.00;;;16.40;99.90;;;;;;20958366;28;20677;-81
2022/09/08 07:44:16;;;;;;;5.38;2.28;;;16.40;99.90;;;;;;20998400;28;20048;-82
2022/09/08 07:54:52;;;;;;;5.38;2.78;;;16.40;99.90;;;;;;21003911;28;20033;-81
2022/09/08 08:05:09;;;;;;;5.90;2.80;;;16.30;99.90;;;;;;20993265;28;20633;-82
2022/09/08 08:15:13;;;;;;;4.50;2.67;;;16.50;99.90;;;;;;20974631;28;20072;-82
2022/09/08 08:25:25;;;;;;;6.65;2.80;;;16.70;99.90;;;;;;20980992;28;20082;-82
2022/09/08 08:35:44;;;;;;;5.35;3.22;;;17.10;99.90;;;;;;20982857;28;20044;-82
2022/09/08 08:46:17;;;;;;;5.80;2.15;;;17.30;99.90;;;;;;21001042;28;20032;-82
2022/09/08 08:56:32;;;;;;;3.60;1.83;;;17.30;99.90;;;;;;20953372;28;20706;-83
2022/09/08 09:07:05;;;;;;;4.47;2.00;;;17.40;99.90;;;;;;20968627;28;20044;-82
2022/09/08 09:17:21;;;;;;;2.50;1.30;;;17.60;99.90;;;;;;20973254;28;20032;-83
2022/09/08 09:27:35;;;;;;;4.28;2.20;;;17.70;99.90;;;;;;21001694;28;20032;-83
2022/09/08 09:37:46;;;;;;;5.97;2.83;;;18.30;99.90;;;;;;20989049;28;20044;-85
2022/09/08 09:48:12;;;;;;;4.63;2.42;;;17.70;99.90;;;;;;20980344;28;20032;-83
2022/09/08 09:58:41;;;;;;;3.42;2.05;;;17.70;99.90;;;;;;20978724;28;20675;-83
2022/09/08 10:09:09;;;;;;;3.03;1.55;;;17.90;99.90;;;;;;20989860;28;20218;-79
2022/09/08 10:19:25;;;;;;;5.53;1.57;;;18.40;99.90;;;;;;20962871;28;21051;-83
2022/09/08 10:29:34;;;;;;;4.35;1.85;;;18.40;99.90;;;;;;20989749;28;20037;-83
2022/09/08 10:39:47;;;;;;;2.42;1.00;;;19.10;99.90;;;;;;20977342;28;20511;-81
2022/09/08 10:50:21;;;;;;;4.65;1.63;;;19.70;99.90;;;;;;21005311;28;20040;-82
2022/09/08 11:00:23;;;;;;;1.90;0.73;;;20.00;99.90;;;;;;20977772;28;20829;-81
2022/09/08 11:10:36;;;;;;;3.20;1.05;;;20.60;99.90;;;;;;20983956;28;20094;-81
2022/09/08 11:20:48;;;;;;;2.10;1.00;;;20.90;99.90;;;;;;20987812;28;20388;-81
2022/09/08 11:31:07;;;;;;;2.70;1.00;;;20.70;99.90;;;;;;20984468;28;20032;-81
2022/09/08 11:41:32;;;;;;;2.13;0.77;;;21.00;99.90;;;;;;21000226;28;20287;-81
2022/09/08 11:52:08;;;;;;;2.63;1.00;;;20.40;99.90;;;;;;21048259;28;20576;-81
2022/09/08 12:02:12;;;;;;;4.07;1.00;;;20.90;99.90;;;;;;20996367;28;20339;-80
2022/09/08 12:12:22;;;;;;;2.75;1.83;;;21.80;99.90;;;;;;21006763;28;20043;-81
2022/09/08 12:22:47;;;;;;;2.40;0.80;;;22.60;99.90;;;;;;21004863;28;20248;-81
2022/09/08 12:33:08;;;;;;;1.85;0.85;;;23.30;99.90;;;;;;20975817;28;20426;-80
2022/09/08 12:43:18;;;;;;;1.35;0.52;;;22.80;99.90;;;;;;20975453;28;20097;-80
2022/09/08 12:53:42;;;;;;;6.60;1.13;;;23.20;99.90;;;;;;20964826;28;20429;-80
2022/09/08 13:03:43;;;;;;;2.25;0.68;;;23.70;99.90;;;;;;20991833;28;20040;-80
2022/09/08 13:13:45;;;;;;;2.75;0.82;;;24.20;99.90;;;;;;20986539;28;20031;-80
2022/09/08 13:23:59;;;;;;;2.15;0.55;;;24.10;99.90;;;;;;20985636;28;20040;-79
2022/09/08 13:34:28;;;;;;;1.48;0.52;;;24.40;99.90;;;;;;20979744;28;20295;-79
2022/09/08 13:44:40;;;;;;;3.53;1.52;;;24.90;99.90;;;;;;20993400;28;21671;-79
2022/09/08 13:55:12;;;;;;;0.93;0.70;;;24.70;99.90;;;;;;20989044;28;20051;-79
2022/09/08 14:05:24;;;;;;;1.52;0.45;;;24.10;99.90;;;;;;20977204;28;20294;-79
2022/09/08 14:15:29;;;;;;;0.85;0.43;;;24.40;99.90;;;;;;20979633;28;20472;-79
2022/09/08 14:25:34;;;;;;;1.60;0.40;;;23.90;99.90;;;;;;20995319;28;20093;-79
2022/09/08 14:35:44;;;;;;;5.53;0.70;;;23.80;99.90;;;;;;20996795;28;20147;-80
2022/09/08 14:45:58;;;;;;;1.08;0.50;;;23.30;99.90;;;;;;20980056;28;20036;-80
2022/09/08 14:56:18;;;;;;;1.15;0.28;;;23.20;99.90;;;;;;21001665;28;20727;-80
2022/09/08 15:06:40;;;;;;;1.23;0.50;;;22.60;99.90;;;;;;20983869;28;20531;-80
2022/09/08 15:17:16;;;;;;;0.50;0.25;;;22.10;99.90;;;;;;20982317;28;20488;-80
2022/09/08 15:27:25;;;;;;;0.95;0.40;;;22.00;99.90;;;;;;20991880;28;20664;-81
2022/09/08 15:37:43;;;;;;;2.45;0.50;;;21.80;99.90;;;;;;21003821;28;20109;-81
2022/09/08 15:47:44;;;;;;;;;;;21.20;99.90;;;;;;21004954;28;20058;-81
2022/09/08 15:58:19;;;;;;;1.48;1.08;;;20.60;99.90;;;;;;20996619;28;20044;-81
2022/09/08 16:08:40;;;;;;;1.02;0.22;;;19.90;99.90;;;;;;20968565;28;20823;-81
2022/09/08 16:18:51;;;;;;;0.45;0.17;;;19.50;99.90;;;;;;21004961;28;20463;-81
2022/09/08 16:29:02;;;;;;;0.20;0.00;;;19.50;99.90;;;;;;20997977;28;20085;-81
2022/09/08 16:39:17;;;;;;;0.38;0.10;;;19.50;99.90;;;;;;20973243;28;20663;-81
2022/09/08 16:49:21;;;;;;;0.30;0.10;;;19.50;99.90;;;;;;20970207;28;21077;-81
2022/09/08 16:59:45;;;;;;;0.20;0.20;;;19.50;99.90;;;;;;20990234;28;20044;-81
2022/09/08 17:10:02;;;;;;;0.40;0.10;;;19.30;99.90;;;;;;21003209;28;20025;-81
2022/09/08 17:20:10;;;;;;;0.30;0.10;;;19.10;99.90;;;;;;20968149;28;20930;-81
2022/09/08 17:30:17;;;;;;;1.10;0.45;;;19.00;99.90;;;;;;20981265;28;21035;-81
2022/09/08 17:40:32;;;;;;;0.50;0.20;;;18.90;99.90;;;;;;20980735;28;20052;-81
2022/09/08 17:50:56;;;;;;;1.65;0.30;;;18.90;99.90;;;;;;20954887;28;20017;-81
2022/09/08 18:01:15;;;;;;;4.68;0.40;;;18.80;99.90;;;;;;21000904;28;20532;-81
2022/09/08 18:11:33;;;;;;;0.63;0.20;;;18.70;99.90;;;;;;21024755;28;20152;-81
2022/09/08 18:21:47;;;;;;;1.42;0.80;;;18.60;99.90;;;;;;21003250;28;20106;-82
2022/09/08 18:32:15;;;;;;;0.88;0.30;;;18.40;99.90;;;;;;21011299;28;20056;-81
2022/09/08 18:42:27;;;;;;;1.98;0.40;;;18.60;99.90;;;;;;21009715;28;20694;-81
2022/09/08 18:52:45;;;;;;;1.17;0.30;;;18.50;99.90;;;;;;21016420;28;20089;-82
2022/09/08 19:02:49;;;;;;;1.63;0.40;;;18.60;99.90;;;;;;21003065;28;20538;-81
2022/09/08 19:13:40;;;;;;;1.00;0.50;;;18.50;99.90;;;;;;20957775;28;20583;-81
2022/09/08 19:23:41;;;;;;;1.48;0.50;;;18.30;99.90;;;;;;20952220;28;20997;-81
2022/09/08 19:33:55;;;;;;;1.05;0.50;;;18.20;99.90;;;;;;20991514;28;20419;-82
2022/09/08 19:44:18;;;;;;;1.90;0.30;;;17.90;99.90;;;;;;20987905;28;20081;-82
2022/09/08 19:54:31;;;;;;;1.45;0.40;;;17.80;99.90;;;;;;20980855;28;21011;-82
2022/09/08 20:05:07;;;;;;;1.48;0.63;;;17.70;99.90;;;;;;20991261;28;20114;-81
2022/09/08 20:15:22;;;;;;;0.95;0.38;;;17.60;99.90;;;;;;20997268;28;20688;-81
2022/09/08 20:25:32;;;;;;;0.35;0.30;;;17.60;99.90;;;;;;20993151;28;20074;-82
2022/09/08 20:35:37;;;;;;;1.02;0.30;;;17.40;99.90;;;;;;20978997;28;20071;-82
2022/09/08 20:45:44;;;;;;;0.60;0.20;;;17.30;99.90;;;;;;20981453;28;20032;-82
2022/09/08 20:55:50;;;;;;;0.75;0.38;;;17.20;99.90;;;;;;20979638;28;20154;-82
2022/09/08 21:05:52;;;;;;;0.77;0.20;;;17.00;99.90;;;;;;20967052;28;20426;-82
2022/09/08 21:16:11;;;;;;;0.60;0.35;;;16.90;99.90;;;;;;20982988;28;20032;-82
2022/09/08 21:26:24;;;;;;;1.15;0.40;;;17.00;99.90;;;;;;20989701;28;21713;-82
2022/09/08 21:36:57;;;;;;;2.20;0.60;;;16.90;99.90;;;;;;20976174;28;20494;-83
2022/09/08 21:47:16;;;;;;;0.55;0.30;;;16.90;99.90;;;;;;20973306;28;20043;-83
2022/09/08 21:57:36;;;;;;;2.85;0.88;;;16.70;99.90;;;;;;20979104;28;20044;-82
2022/09/08 22:07:42;;;;;;;0.40;0.28;;;16.70;99.90;;;;;;20979330;28;20497;-83
2022/09/08 22:17:48;;;;;;;0.88;0.43;;;16.70;99.90;;;;;;20964378;28;20031;-82
2022/09/08 22:27:51;;;;;;;1.02;0.30;;;16.70;99.90;;;;;;20972882;28;20036;-83
2022/09/08 22:38:41;;;;;;;0.95;0.30;;;16.50;99.90;;;;;;21002418;28;20265;-83
2022/09/08 22:49:02;;;;;;;2.08;0.20;;;16.50;99.90;;;;;;20986412;28;20886;-82
2022/09/08 22:59:19;;;;;;;0.70;0.20;;;16.20;99.90;;;;;;21004859;28;20545;-83
2022/09/08 23:09:20;;;;;;;0.28;0.10;;;16.10;99.90;;;;;;20987319;28;20966;-83
2022/09/08 23:19:29;;;;;;;0.55;0.20;;;15.90;99.90;;;;;;21015126;28;20053;-82
2022/09/08 23:29:47;;;;;;;0.10;0.10;;;15.80;99.90;;;;;;20992460;28;20032;-82
2022/09/08 23:40:05;;;;;;;;;;;15.90;99.90;;;;;;20973652;28;20585;-82
2022/09/08 23:50:11;;;;;;;0.30;0.10;;;15.80;99.90;;;;;;21000984;28;20855;-82
